Terminal Aerodrome Forecast
Issued by NWS

Home | Current Version | Previous Version | Graphics & Text | Print | Product List | Glossary On
Versions: 1 2 3 4 5 6 7 8 9 10 11 12 13 14 15 16 17 18 19 20 21 22 23 24 25 26 27
000
FTUS43 KABR 220340 AAC
TAFATY
TAF AMD
KATY 220340Z 2204/2224 09004KT P6SM FEW020 OVC035
     FM220700 14004KT P6SM BKN008
     FM220900 14004KT 3/4SM BR BKN008
     FM221000 15004KT 1/2SM FG OVC003
     FM221300 15004KT 2SM BR SCT008
     FM221500 15005KT P6SM SCT035 SCT250=

USA.gov is the U.S. government's official web portal to all federal, state and local government web resources and services.